Time,TemperatureF,DewpointF,PressureIn,WindDirection,WindDirectionDegrees,WindSpeedMPH,WindSpeedGustMPH,Humidity,HourlyPrecipIn,Conditions,Clouds,dailyrainin,SoftwareType,DateUTC
2013-12-03 00:05:00,42.0,42.0,29.91,WSW,240,0.0,0.0,98,0.00,,,0.00,weatherlink.com 1.10,2013-12-03 05:05:00,
2013-12-03 00:20:00,42.0,42.0,29.91,WSW,240,0.0,0.0,98,0.00,,,0.00,weatherlink.com 1.10,2013-12-03 05:20:00,
2013-12-03 00:35:00,41.9,41.0,29.91,WSW,240,0.0,0.0,98,0.00,,,0.00,weatherlink.com 1.10,2013-12-03 05:35:00,
2013-12-03 00:50:00,41.7,41.0,29.91,WSW,240,0.0,0.0,98,0.00,,,0.00,weatherlink.com 1.10,2013-12-03 05:50:00,
2013-12-03 01:05:00,41.7,41.0,29.91,WSW,240,0.0,0.0,98,0.00,,,0.00,weatherlink.com 1.10,2013-12-03 06:05:00,
2013-12-03 01:20:00,42.2,42.0,29.91,WSW,240,0.0,0.0,99,0.00,,,0.00,weatherlink.com 1.10,2013-12-03 06:20:00,
2013-12-03 01:35:00,42.8,43.0,29.91,WSW,240,0.0,0.0,99,0.00,,,0.00,weatherlink.com 1.10,2013-12-03 06:35:00,
2013-12-03 01:51:00,43.1,43.0,29.91,WSW,240,0.0,0.0,99,0.00,,,0.00,weatherlink.com 1.10,2013-12-03 06:51:00,
2013-12-03 02:05:00,43.9,44.0,29.90,WSW,240,0.0,0.0,99,0.00,,,0.00,weatherlink.com 1.10,2013-12-03 07:05:00,
2013-12-03 02:20:00,43.8,44.0,29.91,WSW,240,0.0,0.0,99,0.00,,,0.00,weatherlink.com 1.10,2013-12-03 07:20:00,
2013-12-03 02:35:00,43.6,43.0,29.91,WSW,240,0.0,0.0,99,0.00,,,0.00,weatherlink.com 1.10,2013-12-03 07:35:00,
2013-12-03 02:50:00,43.5,43.0,29.91,WSW,240,0.0,0.0,99,0.00,,,0.00,weatherlink.com 1.10,2013-12-03 07:50:00,
2013-12-03 03:05:00,43.3,43.0,29.91,WSW,240,0.0,0.0,99,0.00,,,0.00,weatherlink.com 1.10,2013-12-03 08:05:00,
2013-12-03 03:20:00,43.4,43.0,29.91,WSW,240,0.0,0.0,99,0.00,,,0.00,weatherlink.com 1.10,2013-12-03 08:20:00,
2013-12-03 03:35:00,43.7,44.0,29.91,WSW,240,0.0,0.0,99,0.00,,,0.00,weatherlink.com 1.10,2013-12-03 08:35:00,
2013-12-03 03:50:00,43.9,44.0,29.91,WSW,240,0.0,0.0,99,0.00,,,0.00,weatherlink.com 1.10,2013-12-03 08:50:00,
2013-12-03 04:05:00,43.6,43.0,29.91,WSW,240,0.0,0.0,99,0.00,,,0.00,weatherlink.com 1.10,2013-12-03 09:05:00,
2013-12-03 04:20:00,43.1,43.0,29.91,WSW,240,0.0,0.0,99,0.00,,,0.00,weatherlink.com 1.10,2013-12-03 09:20:00,
2013-12-03 04:35:00,42.5,42.0,29.91,WSW,240,0.0,0.0,99,0.00,,,0.00,weatherlink.com 1.10,2013-12-03 09:35:00,
2013-12-03 04:50:00,42.4,42.0,29.92,WSW,240,0.0,0.0,99,0.00,,,0.00,weatherlink.com 1.10,2013-12-03 09:50:00,
2013-12-03 05:05:00,42.7,43.0,29.91,WSW,240,0.0,0.0,99,0.00,,,0.00,weatherlink.com 1.10,2013-12-03 10:05:00,
2013-12-03 05:20:00,43.2,43.0,29.92,WSW,240,0.0,0.0,99,0.00,,,0.00,weatherlink.com 1.10,2013-12-03 10:20:00,
2013-12-03 05:35:00,43.1,43.0,29.93,WSW,240,0.0,0.0,99,0.00,,,0.00,weatherlink.com 1.10,2013-12-03 10:35:00,
2013-12-03 05:50:00,42.9,43.0,29.93,WSW,240,0.0,0.0,99,0.00,,,0.00,weatherlink.com 1.10,2013-12-03 10:50:00,
2013-12-03 06:05:00,42.6,42.0,29.93,WSW,240,0.0,0.0,99,0.00,,,0.00,weatherlink.com 1.10,2013-12-03 11:05:00,
2013-12-03 06:20:00,42.7,43.0,29.94,WSW,240,0.0,0.0,99,0.00,,,0.00,weatherlink.com 1.10,2013-12-03 11:20:00,
2013-12-03 06:35:00,42.8,43.0,29.95,WSW,240,0.0,0.0,99,0.00,,,0.00,weatherlink.com 1.10,2013-12-03 11:35:00,
2013-12-03 06:50:00,43.0,43.0,29.96,WSW,240,0.0,0.0,99,0.00,,,0.00,weatherlink.com 1.10,2013-12-03 11:50:00,
2013-12-03 07:05:00,43.5,43.0,29.97,WSW,240,0.0,0.0,99,0.00,,,0.00,weatherlink.com 1.10,2013-12-03 12:05:00,
2013-12-03 07:20:00,43.8,44.0,29.97,WSW,240,0.0,0.0,99,0.00,,,0.00,weatherlink.com 1.10,2013-12-03 12:20:00,
2013-12-03 07:35:00,44.3,44.0,29.97,WSW,240,0.0,0.0,99,0.00,,,0.00,weatherlink.com 1.10,2013-12-03 12:35:00,
2013-12-03 07:50:00,44.7,45.0,29.98,WSW,240,0.0,0.0,99,0.00,,,0.00,weatherlink.com 1.10,2013-12-03 12:50:00,
2013-12-03 08:05:00,45.7,46.0,29.98,WSW,240,0.0,0.0,99,0.00,,,0.00,weatherlink.com 1.10,2013-12-03 13:05:00,
2013-12-03 08:21:00,46.9,47.0,29.99,WSW,240,0.0,0.0,100,0.00,,,0.00,weatherlink.com 1.10,2013-12-03 13:21:00,
2013-12-03 08:36:00,47.8,48.0,29.99,WSW,240,0.0,0.0,100,0.00,,,0.00,weatherlink.com 1.10,2013-12-03 13:36:00,
2013-12-03 08:51:00,49.3,49.0,29.99,WSW,240,0.0,0.0,100,0.00,,,0.00,weatherlink.com 1.10,2013-12-03 13:51:00,
2013-12-03 09:06:00,51.3,51.0,29.99,ESE,112,0.0,0.0,100,0.00,,,0.00,weatherlink.com 1.10,2013-12-03 14:06:00,
2013-12-03 09:21:00,52.5,53.0,30.00,East,89,0.0,2.0,100,0.00,,,0.00,weatherlink.com 1.10,2013-12-03 14:21:00,
2013-12-03 09:36:00,53.2,53.0,30.01,East,94,2.0,3.0,99,0.00,,,0.00,weatherlink.com 1.10,2013-12-03 14:36:00,
2013-12-03 09:51:00,54.4,54.0,30.02,East,100,0.0,1.0,99,0.00,,,0.00,weatherlink.com 1.10,2013-12-03 14:51:00,
2013-12-03 10:06:00,55.2,54.0,30.01,East,88,0.0,3.0,96,0.00,,,0.00,weatherlink.com 1.10,2013-12-03 15:06:00,
2013-12-03 10:21:00,55.7,54.0,30.02,East,79,2.0,2.0,93,0.00,,,0.00,weatherlink.com 1.10,2013-12-03 15:21:00,
2013-12-03 10:36:00,56.3,54.0,30.01,ESE,105,0.0,2.0,91,0.00,,,0.00,weatherlink.com 1.10,2013-12-03 15:36:00,
2013-12-03 10:51:00,57.0,54.0,30.01,ESE,103,1.0,3.0,89,0.00,,,0.00,weatherlink.com 1.10,2013-12-03 15:51:00,
2013-12-03 11:06:00,58.7,54.0,30.00,SW,231,0.0,3.0,83,0.00,,,0.00,weatherlink.com 1.10,2013-12-03 16:06:00,
2013-12-03 11:21:00,59.9,53.0,30.00,ENE,78,2.0,5.0,79,0.00,,,0.00,weatherlink.com 1.10,2013-12-03 16:21:00,
2013-12-03 11:36:00,60.5,53.0,30.01,SW,222,1.0,5.0,76,0.00,,,0.00,weatherlink.com 1.10,2013-12-03 16:36:00,
2013-12-03 11:51:00,60.9,53.0,30.00,WSW,245,0.0,3.0,75,0.00,,,0.00,weatherlink.com 1.10,2013-12-03 16:51:00,
2013-12-03 12:06:00,61.5,52.0,30.00,WSW,249,0.0,3.0,72,0.00,,,0.00,weatherlink.com 1.10,2013-12-03 17:06:00,
2013-12-03 12:21:00,61.6,52.0,29.99,SW,215,0.0,3.0,71,0.00,,,0.00,weatherlink.com 1.10,2013-12-03 17:21:00,
2013-12-03 12:36:00,61.8,51.0,29.98,South,186,0.0,4.0,69,0.00,,,0.00,weatherlink.com 1.10,2013-12-03 17:36:00,
2013-12-03 12:51:00,62.2,53.0,29.98,WSW,246,1.0,5.0,71,0.00,,,0.00,weatherlink.com 1.10,2013-12-03 17:51:00,
2013-12-03 13:06:00,62.5,53.0,29.97,South,186,0.0,2.0,71,0.00,,,0.00,weatherlink.com 1.10,2013-12-03 18:06:00,
2013-12-03 13:36:00,61.6,53.0,29.97,ENE,60,2.0,4.0,73,0.00,,,0.00,weatherlink.com 1.10,2013-12-03 18:36:00,
2013-12-03 13:51:00,61.7,53.0,29.96,NE,49,4.0,4.0,72,0.00,,,0.00,weatherlink.com 1.10,2013-12-03 18:51:00,
2013-12-03 14:08:00,61.7,53.0,29.96,East,101,0.0,2.0,74,0.00,,,0.00,weatherlink.com 1.10,2013-12-03 19:08:00,
2013-12-03 14:22:00,61.5,53.0,29.96,ENE,78,3.0,3.0,74,0.00,,,0.00,weatherlink.com 1.10,2013-12-03 19:22:00,
2013-12-03 14:37:00,61.1,54.0,29.96,ENE,78,0.0,2.0,76,0.00,,,0.00,weatherlink.com 1.10,2013-12-03 19:37:00,
2013-12-03 14:52:00,60.8,54.0,29.96,East,98,1.0,4.0,77,0.00,,,0.00,weatherlink.com 1.10,2013-12-03 19:52:00,
2013-12-03 15:07:00,60.5,54.0,29.96,ENE,75,1.0,3.0,78,0.00,,,0.00,weatherlink.com 1.10,2013-12-03 20:07:00,
2013-12-03 15:22:00,60.3,54.0,29.96,East,85,2.0,2.0,79,0.00,,,0.00,weatherlink.com 1.10,2013-12-03 20:22:00,
2013-12-03 15:37:00,59.5,53.0,29.96,SE,125,0.0,2.0,80,0.00,,,0.00,weatherlink.com 1.10,2013-12-03 20:37:00,
2013-12-03 15:52:00,59.1,54.0,29.97,East,80,0.0,2.0,83,0.00,,,0.00,weatherlink.com 1.10,2013-12-03 20:52:00,
2013-12-03 16:07:00,58.5,54.0,29.97,East,84,1.0,2.0,84,0.00,,,0.00,weatherlink.com 1.10,2013-12-03 21:07:00,
2013-12-03 16:22:00,58.2,54.0,29.97,East,82,1.0,1.0,86,0.00,,,0.00,weatherlink.com 1.10,2013-12-03 21:22:00,
2013-12-03 16:37:00,57.7,54.0,29.97,East,92,0.0,1.0,87,0.00,,,0.00,weatherlink.com 1.10,2013-12-03 21:37:00,
2013-12-03 16:52:00,57.1,54.0,29.97,East,92,0.0,0.0,89,0.00,,,0.00,weatherlink.com 1.10,2013-12-03 21:52:00,
2013-12-03 17:07:00,56.3,54.0,29.98,East,92,0.0,0.0,90,0.00,,,0.00,weatherlink.com 1.10,2013-12-03 22:07:00,
2013-12-03 17:22:00,55.6,53.0,29.98,East,91,0.0,0.0,91,0.00,,,0.00,weatherlink.com 1.10,2013-12-03 22:22:00,
2013-12-03 17:37:00,54.9,53.0,29.98,East,91,0.0,0.0,92,0.00,,,0.00,weatherlink.com 1.10,2013-12-03 22:37:00,
2013-12-03 17:52:00,54.1,52.0,29.99,East,91,0.0,0.0,93,0.00,,,0.00,weatherlink.com 1.10,2013-12-03 22:52:00,
2013-12-03 18:22:00,52.8,51.0,29.99,East,91,0.0,0.0,94,0.00,,,0.00,weatherlink.com 1.10,2013-12-03 23:22:00,
2013-12-03 18:37:00,52.6,51.0,29.99,East,91,0.0,0.0,95,0.00,,,0.00,weatherlink.com 1.10,2013-12-03 23:37:00,
2013-12-03 18:52:00,52.2,51.0,30.00,East,91,0.0,0.0,95,0.00,,,0.00,weatherlink.com 1.10,2013-12-03 23:52:00,
2013-12-03 19:07:00,51.7,50.0,30.00,East,91,0.0,0.0,95,0.00,,,0.00,weatherlink.com 1.10,2013-12-04 00:07:00,
2013-12-03 19:22:00,51.3,50.0,30.00,East,92,0.0,0.0,96,0.00,,,0.00,weatherlink.com 1.10,2013-12-04 00:22:00,
2013-12-03 19:37:00,51.5,50.0,29.99,East,92,0.0,0.0,96,0.00,,,0.00,weatherlink.com 1.10,2013-12-04 00:37:00,
2013-12-03 19:52:00,51.7,51.0,30.00,East,92,0.0,0.0,97,0.00,,,0.00,weatherlink.com 1.10,2013-12-04 00:52:00,
2013-12-03 20:07:00,52.0,51.0,30.01,East,91,0.0,0.0,97,0.00,,,0.00,weatherlink.com 1.10,2013-12-04 01:07:00,
2013-12-03 20:22:00,52.4,52.0,30.00,East,92,0.0,0.0,97,0.00,,,0.00,weatherlink.com 1.10,2013-12-04 01:22:00,
2013-12-03 20:37:00,52.9,52.0,30.01,East,92,0.0,0.0,97,0.00,,,0.00,weatherlink.com 1.10,2013-12-04 01:37:00,
2013-12-03 20:52:00,53.1,52.0,30.01,East,91,0.0,0.0,97,0.00,,,0.00,weatherlink.com 1.10,2013-12-04 01:52:00,
2013-12-03 21:07:00,53.5,53.0,30.01,East,92,0.0,0.0,97,0.00,,,0.00,weatherlink.com 1.10,2013-12-04 02:07:00,
2013-12-03 21:22:00,53.7,53.0,30.02,East,92,0.0,0.0,97,0.00,,,0.00,weatherlink.com 1.10,2013-12-04 02:22:00,
2013-12-03 21:37:00,54.0,53.0,30.02,East,91,0.0,0.0,97,0.02,,,0.02,weatherlink.com 1.10,2013-12-04 02:37:00,
2013-12-03 21:52:00,54.2,54.0,30.03,East,92,0.0,0.0,98,0.04,,,0.04,weatherlink.com 1.10,2013-12-04 02:52:00,
2013-12-03 22:07:00,54.4,54.0,30.03,East,92,0.0,1.0,98,0.07,,,0.07,weatherlink.com 1.10,2013-12-04 03:07:00,
2013-12-03 22:22:00,54.6,54.0,30.03,East,91,0.0,1.0,98,0.08,,,0.08,weatherlink.com 1.10,2013-12-04 03:22:00,
2013-12-03 22:37:00,54.6,54.0,30.03,East,92,0.0,0.0,98,0.07,,,0.09,weatherlink.com 1.10,2013-12-04 03:37:00,
2013-12-03 22:52:00,54.7,54.0,30.02,East,91,0.0,0.0,98,0.05,,,0.10,weatherlink.com 1.10,2013-12-04 03:52:00,
2013-12-03 23:07:00,54.6,54.0,30.01,East,91,0.0,0.0,98,0.03,,,0.10,weatherlink.com 1.10,2013-12-04 04:07:00,
2013-12-03 23:22:00,54.6,54.0,30.01,East,91,0.0,0.0,98,0.01,,,0.10,weatherlink.com 1.10,2013-12-04 04:22:00,
2013-12-03 23:37:00,54.7,54.0,30.02,East,92,0.0,0.0,98,0.01,,,0.10,weatherlink.com 1.10,2013-12-04 04:37:00,
2013-12-03 23:52:00,54.7,54.0,30.02,East,92,0.0,0.0,98,0.00,,,0.10,weatherlink.com 1.10,2013-12-04 04:52:00,